Weather at Arvika Airport

Public forecast

Using degrees Celsius for public forecast. Weather courtesy of forecast.io.

Closest aviation weather report (METAR) to Arvika Airport

Closest report is Karlstad Airport, 25.4 nm (47.0 km) ESE. Retrieved 2021/05/09 00:20 UTC (17 seconds ago):

ESOK 090020Z AUTO 18004KT 9999 NCD 03/01 Q1010

Closest aviation forecast (TAF) to Arvika Airport

Forecast is more than 12 hours old.

Closest forecast is Karlstad Airport, 25.4 nm (47.0 km) ESE. Retrieved 2017/05/22 06:33 UTC (4 years ago):

TAF ESOK 220530Z 2206/2224 28006KT CAVOK